createdAt,value
2023-02-18T00:01:30.623Z,6.81
2023-02-18T00:03:58.617Z,6.78
2023-02-18T00:06:27.798Z,6.83
2023-02-18T00:08:55.372Z,6.87
2023-02-18T00:11:22.246Z,6.86
2023-02-18T00:13:53.809Z,6.81
2023-02-18T00:16:22.080Z,6.78
2023-02-18T00:18:49.006Z,6.83
2023-02-18T00:21:15.675Z,6.92
2023-02-18T00:23:43.985Z,6.86
2023-02-18T00:26:14.236Z,6.80
2023-02-18T00:28:41.640Z,6.80
2023-02-18T00:31:11.272Z,6.85
2023-02-18T00:33:38.244Z,6.87
2023-02-18T00:36:08.403Z,6.89
2023-02-18T00:38:35.653Z,6.94
2023-02-18T00:41:03.822Z,6.88
2023-02-18T00:43:30.753Z,6.98
2023-02-18T00:45:57.488Z,7.00
2023-02-18T00:48:28.108Z,7.03
2023-02-18T00:50:54.626Z,6.95
2023-02-18T00:53:23.081Z,6.91
2023-02-18T00:55:49.957Z,6.80
2023-02-18T00:58:17.028Z,6.88
2023-02-18T01:00:43.545Z,6.88
2023-02-18T01:03:10.154Z,6.95
2023-02-18T01:05:38.268Z,6.97
2023-02-18T01:08:07.083Z,6.97
2023-02-18T01:10:34.550Z,6.88
2023-02-18T01:13:01.630Z,6.90
2023-02-18T01:15:28.095Z,6.82
2023-02-18T01:17:54.485Z,6.84
2023-02-18T01:20:21.384Z,6.75
2023-02-18T01:22:47.920Z,6.89
2023-02-18T01:25:15.325Z,6.93
2023-02-18T01:27:41.818Z,7.02
2023-02-18T01:30:12.330Z,7.02
2023-02-18T01:32:38.816Z,6.99
2023-02-18T01:35:06.896Z,7.03
2023-02-18T01:37:33.910Z,7.02
2023-02-18T01:40:00.337Z,7.12
2023-02-18T01:42:30.093Z,7.07
2023-02-18T01:45:34.455Z,7.12
2023-02-18T01:48:05.520Z,7.03
2023-02-18T01:50:35.816Z,7.05
2023-02-18T01:53:02.831Z,7.12
2023-02-18T01:55:31.687Z,7.24
2023-02-18T01:57:58.146Z,7.19
2023-02-18T02:00:24.888Z,7.12
2023-02-18T02:02:53.393Z,7.03
2023-02-18T02:05:22.232Z,7.22
2023-02-18T02:07:52.052Z,7.16
2023-02-18T02:10:19.804Z,7.22
2023-02-18T02:13:14.998Z,7.18
2023-02-18T02:15:47.904Z,7.08
2023-02-18T02:18:33.729Z,7.04
2023-02-18T02:21:41.632Z,6.92
2023-02-18T02:24:29.544Z,6.97
2023-02-18T02:27:21.041Z,6.86
2023-02-18T02:30:17.239Z,6.87
2023-02-18T02:33:21.254Z,6.93
2023-02-18T02:36:09.238Z,6.82
2023-02-18T02:38:42.535Z,6.90
2023-02-18T02:41:40.919Z,6.70
2023-02-18T02:44:36.627Z,6.72
2023-02-18T02:47:10.562Z,6.92
2023-02-18T02:49:56.409Z,6.73
2023-02-18T02:52:29.848Z,6.71
2023-02-18T02:54:56.363Z,6.66
2023-02-18T02:57:22.839Z,6.76
2023-02-18T03:00:03.345Z,6.68
2023-02-18T03:02:41.448Z,6.66
2023-02-18T03:05:37.732Z,6.72
2023-02-18T03:08:30.371Z,6.77
2023-02-18T03:11:09.283Z,6.88
2023-02-18T03:13:58.125Z,6.85
2023-02-18T03:16:53.522Z,6.88
2023-02-18T03:19:32.750Z,6.88
2023-02-18T03:22:12.045Z,6.74
2023-02-18T03:24:42.316Z,6.70
2023-02-18T03:27:23.338Z,6.73
2023-02-18T03:29:55.892Z,6.76
2023-02-18T03:32:24.180Z,6.85
2023-02-18T03:35:00.412Z,6.80
2023-02-18T03:37:27.664Z,6.83
2023-02-18T03:39:59.761Z,6.92
2023-02-18T03:42:28.226Z,7.01
2023-02-18T03:44:55.191Z,7.03
2023-02-18T03:47:24.110Z,6.93
2023-02-18T03:49:51.091Z,6.97
2023-02-18T03:52:18.035Z,7.03
2023-02-18T03:54:44.432Z,7.07
2023-02-18T03:57:10.927Z,7.17
2023-02-18T03:59:37.429Z,7.12
2023-02-18T04:02:03.870Z,7.07
2023-02-18T04:04:30.496Z,7.00
2023-02-18T04:06:57.008Z,6.96
2023-02-18T04:09:24.427Z,7.03
2023-02-18T04:11:51.295Z,7.05
2023-02-18T04:14:17.954Z,6.94
2023-02-18T04:16:44.423Z,7.06
2023-02-18T04:19:11.245Z,6.90
2023-02-18T04:21:37.700Z,6.88
2023-02-18T04:24:04.348Z,6.81
2023-02-18T04:26:30.875Z,6.83
2023-02-18T04:28:57.590Z,6.77
2023-02-18T04:31:24.130Z,6.70
2023-02-18T04:33:51.133Z,6.69
2023-02-18T04:36:17.575Z,6.63
2023-02-18T04:38:43.976Z,6.62
2023-02-18T04:41:12.640Z,6.70
2023-02-18T04:43:39.237Z,6.63
2023-02-18T04:46:05.916Z,6.62
2023-02-18T04:48:32.543Z,6.68
2023-02-18T04:50:58.973Z,6.70
2023-02-18T04:53:25.424Z,6.64
2023-02-18T04:55:53.366Z,6.66
2023-02-18T04:58:21.430Z,6.62
2023-02-18T05:00:48.021Z,6.59
2023-02-18T05:03:14.632Z,6.55
2023-02-18T05:05:41.925Z,6.58
2023-02-18T05:08:08.702Z,6.61
2023-02-18T05:10:35.130Z,6.70
2023-02-18T05:13:02.266Z,6.71
2023-02-18T05:15:28.684Z,6.81
2023-02-18T05:17:55.223Z,7.00
2023-02-18T05:20:21.735Z,6.97
2023-02-18T05:22:48.192Z,6.98
2023-02-18T05:25:14.606Z,6.99
2023-02-18T05:27:41.047Z,6.99
2023-02-18T05:30:08.245Z,7.11
2023-02-18T05:32:34.775Z,7.04
2023-02-18T05:35:02.726Z,7.15
2023-02-18T05:37:29.140Z,7.09
2023-02-18T05:39:55.541Z,7.02
2023-02-18T05:42:23.315Z,7.04
2023-02-18T05:44:50.038Z,7.14
2023-02-18T05:47:16.551Z,7.14
2023-02-18T05:49:43.758Z,7.14
2023-02-18T05:52:11.054Z,7.18
2023-02-18T05:54:37.840Z,7.12
2023-02-18T05:57:04.278Z,7.13
2023-02-18T05:59:31.216Z,7.14
2023-02-18T06:01:57.804Z,7.16
2023-02-18T06:04:24.893Z,7.07
2023-02-18T06:06:51.687Z,7.25
2023-02-18T06:09:18.103Z,7.16
2023-02-18T06:11:44.587Z,7.24
2023-02-18T06:14:11.027Z,7.19
2023-02-18T06:16:37.777Z,7.20
2023-02-18T06:19:04.236Z,7.17
2023-02-18T06:21:30.655Z,7.19
2023-02-18T06:23:57.164Z,7.15
2023-02-18T06:26:23.992Z,7.13
2023-02-18T06:28:50.534Z,7.13
2023-02-18T06:31:17.073Z,7.13
2023-02-18T06:33:43.659Z,7.16
2023-02-18T06:36:12.391Z,7.16
2023-02-18T06:38:41.078Z,7.16
2023-02-18T06:41:08.613Z,7.18
2023-02-18T06:43:35.286Z,7.19
2023-02-18T06:46:02.230Z,7.24
2023-02-18T06:48:29.049Z,7.28
2023-02-18T06:50:55.452Z,7.24
2023-02-18T06:53:22.200Z,7.23
2023-02-18T06:55:50.049Z,7.29
2023-02-18T06:58:16.576Z,7.32
2023-02-18T07:00:43.159Z,7.34
2023-02-18T07:03:13.076Z,7.35
2023-02-18T07:05:39.529Z,7.41
2023-02-18T07:08:06.021Z,7.42
2023-02-18T07:10:32.484Z,7.47
2023-02-18T07:12:58.913Z,7.48
2023-02-18T07:15:26.846Z,7.54
2023-02-18T07:17:53.701Z,7.52
2023-02-18T07:20:21.771Z,7.50
2023-02-18T07:22:48.284Z,7.60
2023-02-18T07:25:14.847Z,7.59
2023-02-18T07:27:41.371Z,7.72
2023-02-18T07:30:08.683Z,7.71
2023-02-18T07:32:35.195Z,7.75
2023-02-18T07:35:02.336Z,7.88
2023-02-18T07:37:28.752Z,8.08
2023-02-18T07:39:55.363Z,8.20
2023-02-18T07:42:22.401Z,8.37
2023-02-18T07:44:50.174Z,8.47
2023-02-18T07:47:19.661Z,8.52
2023-02-18T07:49:47.313Z,8.59
2023-02-18T07:52:15.133Z,8.62
2023-02-18T07:54:41.860Z,8.79
2023-02-18T07:57:08.380Z,8.81
2023-02-18T07:59:34.774Z,8.84
2023-02-18T08:02:01.576Z,8.86
2023-02-18T08:04:28.053Z,8.82
2023-02-18T08:06:54.513Z,9.00
2023-02-18T08:09:21.226Z,8.94
2023-02-18T08:11:47.907Z,9.01
2023-02-18T08:14:14.362Z,9.02
2023-02-18T08:16:40.874Z,9.00
2023-02-18T08:19:07.936Z,9.00
2023-02-18T08:21:34.906Z,9.02
2023-02-18T08:24:01.363Z,9.08
2023-02-18T08:26:27.921Z,9.12
2023-02-18T08:28:54.614Z,9.17
2023-02-18T08:31:25.821Z,9.17
2023-02-18T08:33:54.280Z,9.20
2023-02-18T08:36:21.473Z,9.17
2023-02-18T08:38:48.368Z,9.19
2023-02-18T08:41:15.777Z,9.20
2023-02-18T08:43:42.680Z,9.24
2023-02-18T08:46:09.133Z,9.26
2023-02-18T08:48:43.000Z,9.22
2023-02-18T08:51:19.124Z,9.25
2023-02-18T08:53:47.156Z,9.25
2023-02-18T08:56:14.791Z,9.37
2023-02-18T08:58:42.122Z,9.38
2023-02-18T09:01:11.450Z,9.43
2023-02-18T09:03:38.183Z,9.44
2023-02-18T09:06:05.427Z,9.55
2023-02-18T09:08:31.932Z,9.52
2023-02-18T09:11:00.992Z,9.54
2023-02-18T09:13:28.152Z,9.55
2023-02-18T09:16:04.213Z,9.54
2023-02-18T09:18:32.574Z,9.61
2023-02-18T09:21:00.550Z,9.63
2023-02-18T09:23:28.643Z,9.64
2023-02-18T09:25:55.633Z,9.59
2023-02-18T09:28:22.799Z,9.66
2023-02-18T09:30:49.618Z,9.68
2023-02-18T09:33:16.788Z,9.70
2023-02-18T09:35:44.818Z,9.72
2023-02-18T09:38:14.363Z,9.71
2023-02-18T09:40:45.350Z,9.70
2023-02-18T09:43:34.669Z,9.64
2023-02-18T09:46:02.905Z,9.61
2023-02-18T09:48:33.354Z,9.58
2023-02-18T09:51:00.105Z,9.48
2023-02-18T09:53:27.831Z,9.56
2023-02-18T09:55:56.883Z,9.53
2023-02-18T09:58:30.192Z,9.52
2023-02-18T10:01:05.988Z,9.53
2023-02-18T10:03:32.587Z,9.57
2023-02-18T10:06:05.109Z,9.59
2023-02-18T10:08:36.615Z,9.67
2023-02-18T10:11:03.749Z,9.79
2023-02-18T10:13:34.191Z,9.87
2023-02-18T10:16:03.757Z,9.94
2023-02-18T10:18:33.592Z,9.96
2023-02-18T10:21:19.526Z,9.93
2023-02-18T10:24:14.678Z,9.83
2023-02-18T10:26:42.568Z,9.68
2023-02-18T10:29:21.273Z,9.64
2023-02-18T10:31:59.399Z,9.67
2023-02-18T10:34:46.536Z,9.54
2023-02-18T10:37:21.932Z,9.56
2023-02-18T10:39:59.929Z,9.48
2023-02-18T10:42:53.341Z,9.53
2023-02-18T10:45:29.924Z,9.59
2023-02-18T10:48:05.337Z,9.57
2023-02-18T10:50:37.079Z,9.55
2023-02-18T10:53:18.978Z,9.59
2023-02-18T10:55:49.514Z,9.59
2023-02-18T10:58:28.028Z,9.60
2023-02-18T11:00:54.608Z,9.62
2023-02-18T11:03:24.652Z,9.69
2023-02-18T11:05:55.703Z,9.69
2023-02-18T11:08:31.666Z,9.64
2023-02-18T11:10:58.306Z,9.62
2023-02-18T11:13:28.482Z,9.58
2023-02-18T11:16:01.990Z,9.55
2023-02-18T11:18:44.187Z,9.57
2023-02-18T11:21:13.356Z,9.57
2023-02-18T11:23:49.280Z,9.58
2023-02-18T11:26:18.000Z,9.60
2023-02-18T11:28:47.375Z,9.53
2023-02-18T11:31:24.251Z,9.51
2023-02-18T11:33:56.902Z,9.50
2023-02-18T11:36:28.099Z,9.49
2023-02-18T11:39:00.632Z,9.52
2023-02-18T11:41:37.104Z,9.49
2023-02-18T11:44:07.932Z,9.51
2023-02-18T11:46:34.465Z,9.52
2023-02-18T11:49:21.808Z,9.55
2023-02-18T11:51:49.575Z,9.56
2023-02-18T11:54:25.713Z,9.56
2023-02-18T11:57:05.305Z,9.60
2023-02-18T11:59:37.937Z,9.63
2023-02-18T12:02:11.639Z,9.63
2023-02-18T12:04:45.954Z,9.66
2023-02-18T12:07:21.410Z,9.55
2023-02-18T12:09:51.869Z,9.58
2023-02-18T12:12:26.557Z,9.48
2023-02-18T12:14:55.570Z,9.48
2023-02-18T12:17:22.589Z,9.40
2023-02-18T12:20:07.933Z,9.38
2023-02-18T12:22:43.885Z,9.34
2023-02-18T12:25:37.531Z,9.26
2023-02-18T12:28:34.073Z,9.22
2023-02-18T12:31:26.107Z,9.23
2023-02-18T12:34:20.540Z,9.18
2023-02-18T12:37:17.107Z,9.17
2023-02-18T12:40:00.520Z,9.16
2023-02-18T12:42:53.221Z,9.18
2023-02-18T12:45:56.347Z,9.20
2023-02-18T12:48:45.560Z,9.22
2023-02-18T12:51:20.546Z,9.20
2023-02-18T12:54:11.862Z,9.21
2023-02-18T12:56:41.177Z,9.23
2023-02-18T12:59:35.702Z,9.21
2023-02-18T13:02:05.105Z,9.19
2023-02-18T13:04:46.566Z,9.22
2023-02-18T13:07:31.550Z,9.19
2023-02-18T13:10:24.152Z,9.20
2023-02-18T13:13:16.197Z,9.16
2023-02-18T13:16:03.839Z,9.13
2023-02-18T13:18:34.727Z,9.07
2023-02-18T13:21:06.132Z,9.06
2023-02-18T13:23:37.863Z,9.01
2023-02-18T13:26:07.759Z,9.04
2023-02-18T13:28:52.375Z,8.99
2023-02-18T13:31:42.140Z,9.01
2023-02-18T13:34:17.450Z,9.03
2023-02-18T13:36:52.167Z,8.97
2023-02-18T13:39:22.051Z,9.04
2023-02-18T13:41:50.560Z,9.04
2023-02-18T13:44:16.927Z,9.08
2023-02-18T13:46:56.293Z,9.08
2023-02-18T13:49:34.825Z,9.16
2023-02-18T13:52:02.963Z,9.19
2023-02-18T13:54:33.737Z,9.12
2023-02-18T13:57:03.643Z,9.13
2023-02-18T13:59:37.289Z,9.09
2023-02-18T14:02:22.980Z,9.12
2023-02-18T14:04:54.072Z,9.08
2023-02-18T14:07:44.446Z,9.03
2023-02-18T14:10:13.707Z,9.02
2023-02-18T14:12:42.136Z,9.02
2023-02-18T14:15:18.425Z,9.04
2023-02-18T14:17:49.327Z,9.12
2023-02-18T14:20:21.984Z,9.04
2023-02-18T14:22:53.024Z,9.07
2023-02-18T14:25:36.593Z,9.13
2023-02-18T14:28:36.178Z,9.15
2023-02-18T14:31:12.243Z,9.24
2023-02-18T14:34:00.899Z,9.25
2023-02-18T14:36:39.853Z,9.19
2023-02-18T14:39:35.775Z,9.26
2023-02-18T14:42:11.172Z,9.30
2023-02-18T14:45:09.579Z,9.24
2023-02-18T14:47:58.180Z,9.25
2023-02-18T14:50:24.779Z,9.33
2023-02-18T14:52:59.153Z,9.28
2023-02-18T14:55:32.759Z,9.33
2023-02-18T14:58:02.864Z,9.35
2023-02-18T15:00:35.582Z,9.33
2023-02-18T15:03:02.615Z,9.34
2023-02-18T15:05:32.001Z,9.33
2023-02-18T15:08:03.756Z,9.34
2023-02-18T15:11:02.562Z,9.33
2023-02-18T15:13:44.205Z,9.31
2023-02-18T15:16:21.890Z,9.30
2023-02-18T15:18:58.527Z,9.31
2023-02-18T15:21:29.152Z,9.34
2023-02-18T15:24:03.111Z,9.34
2023-02-18T15:26:29.651Z,9.37
2023-02-18T15:29:04.998Z,9.34
2023-02-18T15:31:38.687Z,9.29
2023-02-18T15:34:31.298Z,9.38
2023-02-18T15:37:00.255Z,9.35
2023-02-18T15:39:27.339Z,9.23
2023-02-18T15:41:56.742Z,9.24
2023-02-18T15:44:28.768Z,9.30
2023-02-18T15:46:55.720Z,9.24
2023-02-18T15:49:24.516Z,9.23
2023-02-18T15:51:56.059Z,9.26
2023-02-18T15:54:23.529Z,9.23
2023-02-18T15:56:54.203Z,9.26
2023-02-18T15:59:24.454Z,9.26
2023-02-18T16:02:07.993Z,9.30
2023-02-18T16:04:38.410Z,9.35
2023-02-18T16:07:20.644Z,9.40
2023-02-18T16:09:47.167Z,9.36
2023-02-18T16:12:34.370Z,9.33
2023-02-18T16:15:00.907Z,9.32
2023-02-18T16:17:29.549Z,9.38
2023-02-18T16:20:05.659Z,9.31
2023-02-18T16:22:33.315Z,9.25
2023-02-18T16:25:23.755Z,9.26
2023-02-18T16:27:54.942Z,9.28
2023-02-18T16:30:27.501Z,9.28
2023-02-18T16:32:54.810Z,9.29
2023-02-18T16:35:23.238Z,9.20
2023-02-18T16:37:52.757Z,9.24
2023-02-18T16:40:22.437Z,9.26
2023-02-18T16:42:49.498Z,9.30
2023-02-18T16:45:16.043Z,9.23
2023-02-18T16:47:46.291Z,9.23
2023-02-18T16:50:22.578Z,9.24
2023-02-18T16:52:49.699Z,9.26
2023-02-18T16:55:22.150Z,9.22
2023-02-18T16:57:48.649Z,9.17
2023-02-18T17:00:17.132Z,9.22
2023-02-18T17:02:50.192Z,9.25
2023-02-18T17:05:26.412Z,9.28
2023-02-18T17:07:53.936Z,9.25
2023-02-18T17:10:20.823Z,9.27
2023-02-18T17:12:47.268Z,9.35
2023-02-18T17:15:33.880Z,9.34
2023-02-18T17:18:01.739Z,9.28
2023-02-18T17:20:30.844Z,9.27
2023-02-18T17:22:58.452Z,9.23
2023-02-18T17:25:29.275Z,9.17
2023-02-18T17:27:56.745Z,9.13
2023-02-18T17:30:23.630Z,9.12
2023-02-18T17:32:50.723Z,9.21
2023-02-18T17:35:23.023Z,9.15
2023-02-18T17:37:49.824Z,9.24
2023-02-18T17:40:19.653Z,9.17
2023-02-18T17:42:46.325Z,9.13
2023-02-18T17:45:18.905Z,9.20
2023-02-18T17:47:46.479Z,9.23
2023-02-18T17:50:13.442Z,9.20
2023-02-18T17:52:40.088Z,9.21
2023-02-18T17:55:16.187Z,9.19
2023-02-18T17:57:44.887Z,9.15
2023-02-18T18:00:13.881Z,9.22
2023-02-18T18:02:41.169Z,9.16
2023-02-18T18:05:16.830Z,9.18
2023-02-18T18:07:43.320Z,9.18
2023-02-18T18:10:10.095Z,9.13
2023-02-18T18:12:36.639Z,9.14
2023-02-18T18:15:17.889Z,9.16
2023-02-18T18:17:44.306Z,9.17
2023-02-18T18:20:11.178Z,9.13
2023-02-18T18:22:37.635Z,9.12
2023-02-18T18:25:17.248Z,9.03
2023-02-18T18:27:43.670Z,9.02
2023-02-18T18:30:10.326Z,9.04
2023-02-18T18:32:36.757Z,9.03
2023-02-18T18:35:03.693Z,9.06
2023-02-18T18:37:30.064Z,9.08
2023-02-18T18:39:56.450Z,9.03
2023-02-18T18:42:23.040Z,9.02
2023-02-18T18:44:49.592Z,9.04
2023-02-18T18:47:16.043Z,9.01
2023-02-18T18:49:42.421Z,9.06
2023-02-18T18:52:15.987Z,8.96
2023-02-18T18:54:42.394Z,8.98
2023-02-18T18:57:08.774Z,8.99
2023-02-18T18:59:35.371Z,9.00
2023-02-18T19:02:01.850Z,9.03
2023-02-18T19:04:28.502Z,8.96
2023-02-18T19:06:55.402Z,8.96
2023-02-18T19:09:22.198Z,8.98
2023-02-18T19:11:48.632Z,8.93
2023-02-18T19:14:15.137Z,8.93
2023-02-18T19:16:43.032Z,8.86
2023-02-18T19:19:10.706Z,8.86
2023-02-18T19:21:37.178Z,8.86
2023-02-18T19:24:03.891Z,8.80
2023-02-18T19:26:30.336Z,8.80
2023-02-18T19:28:56.778Z,8.84
2023-02-18T19:31:24.484Z,8.76
2023-02-18T19:33:52.131Z,8.74
2023-02-18T19:36:18.725Z,8.77
2023-02-18T19:38:45.965Z,8.70
2023-02-18T19:41:14.280Z,8.73
2023-02-18T19:43:41.595Z,8.75
2023-02-18T19:46:17.334Z,8.77
2023-02-18T19:48:47.696Z,8.64
2023-02-18T19:51:14.529Z,8.68
2023-02-18T19:53:40.940Z,8.63
2023-02-18T19:56:07.860Z,8.67
2023-02-18T19:58:35.337Z,8.67
2023-02-18T20:01:02.158Z,8.64
2023-02-18T20:03:29.426Z,8.69
2023-02-18T20:05:56.162Z,8.66
2023-02-18T20:08:22.615Z,8.61
2023-02-18T20:10:57.667Z,8.55
2023-02-18T20:13:24.360Z,8.55
2023-02-18T20:15:51.043Z,8.50
2023-02-18T20:18:17.475Z,8.57
2023-02-18T20:20:51.056Z,8.55
2023-02-18T20:23:17.854Z,8.55
2023-02-18T20:25:47.399Z,8.62
2023-02-18T20:28:14.954Z,8.68
2023-02-18T20:30:41.784Z,8.66
2023-02-18T20:33:08.239Z,8.68
2023-02-18T20:35:34.659Z,8.74
2023-02-18T20:38:01.033Z,8.73
2023-02-18T20:40:27.897Z,8.66
2023-02-18T20:42:54.624Z,8.73
2023-02-18T20:45:21.168Z,8.61
2023-02-18T20:47:47.648Z,8.61
2023-02-18T20:50:14.027Z,8.65
2023-02-18T20:52:40.556Z,8.74
2023-02-18T20:55:07.058Z,8.63
2023-02-18T20:57:33.486Z,8.67
2023-02-18T20:59:59.898Z,8.68
2023-02-18T21:02:26.988Z,8.68
2023-02-18T21:04:53.461Z,8.62
2023-02-18T21:07:19.924Z,8.51
2023-02-18T21:09:46.313Z,8.57
2023-02-18T21:12:12.731Z,8.55
2023-02-18T21:14:39.173Z,8.43
2023-02-18T21:17:07.352Z,8.49
2023-02-18T21:19:34.931Z,8.53
2023-02-18T21:22:01.551Z,8.58
2023-02-18T21:24:28.203Z,8.52
2023-02-18T21:26:54.782Z,8.53
2023-02-18T21:29:21.310Z,8.67
2023-02-18T21:31:47.854Z,8.57
2023-02-18T21:34:15.853Z,8.52
2023-02-18T21:36:43.109Z,8.61
2023-02-18T21:39:10.833Z,8.55
2023-02-18T21:41:40.474Z,8.56
2023-02-18T21:44:08.041Z,8.58
2023-02-18T21:46:34.811Z,8.58
2023-02-18T21:49:09.751Z,8.56
2023-02-18T21:51:57.526Z,8.60
2023-02-18T21:54:33.424Z,8.56
2023-02-18T21:57:01.743Z,8.58
2023-02-18T21:59:30.288Z,8.58
2023-02-18T22:02:00.139Z,8.66
2023-02-18T22:04:28.764Z,8.68
2023-02-18T22:06:55.263Z,8.63
2023-02-18T22:09:22.198Z,8.65
2023-02-18T22:11:48.872Z,8.63
2023-02-18T22:14:15.979Z,8.60
2023-02-18T22:16:43.144Z,8.66
2023-02-18T22:19:14.041Z,8.71
2023-02-18T22:21:41.654Z,8.64
2023-02-18T22:24:08.755Z,8.56
2023-02-18T22:26:35.278Z,8.58
2023-02-18T22:29:02.311Z,8.58
2023-02-18T22:31:30.677Z,8.53
2023-02-18T22:33:59.233Z,8.53
2023-02-18T22:36:27.116Z,8.69
2023-02-18T22:38:54.183Z,8.56
2023-02-18T22:41:23.669Z,8.47
2023-02-18T22:43:57.249Z,8.50
2023-02-18T22:46:24.645Z,8.35
2023-02-18T22:48:52.222Z,8.29
2023-02-18T22:51:25.101Z,8.35
2023-02-18T22:53:58.829Z,8.35
2023-02-18T22:56:28.088Z,8.34
2023-02-18T22:58:56.132Z,8.23
2023-02-18T23:01:33.245Z,8.25
2023-02-18T23:04:10.773Z,8.33
2023-02-18T23:06:38.530Z,8.29
2023-02-18T23:09:13.051Z,8.28
2023-02-18T23:11:39.792Z,8.26
2023-02-18T23:14:19.387Z,8.30
2023-02-18T23:17:10.467Z,8.26
2023-02-18T23:19:37.247Z,8.37
2023-02-18T23:22:03.978Z,8.27
2023-02-18T23:24:39.143Z,8.34
2023-02-18T23:27:06.985Z,8.30
2023-02-18T23:29:33.410Z,8.24
2023-02-18T23:31:59.904Z,8.27
2023-02-18T23:34:26.814Z,8.30
2023-02-18T23:36:53.478Z,8.32
2023-02-18T23:39:22.265Z,8.25
2023-02-18T23:41:49.906Z,8.19
2023-02-18T23:44:19.241Z,8.23
2023-02-18T23:46:46.013Z,8.23
2023-02-18T23:49:25.722Z,8.18
2023-02-18T23:51:54.681Z,8.03
2023-02-18T23:54:23.257Z,8.13
2023-02-18T23:56:49.908Z,8.12
2023-02-18T23:59:16.707Z,8.11
